Time;durP1;ratioP1;P1;durP2;ratioP2;P2;SDS_P1;SDS_P2;PMS_P1;PMS_P2;Temp;Humidity;BMP_temperature;BMP_pressure;BME280_temperature;BME280_humidity;BME280_pressure;Samples;Min_cycle;Max_cycle;Signal;HPM_P1;HPM_P2
2024/02/21 00:02:19;;;;;;;0.43;0.43;;;;;;;;;;4985405;28;20038;-86
2024/02/21 00:04:45;;;;;;;0.20;0.10;;;;;;;;;;4983748;28;20049;-86
2024/02/21 00:07:11;;;;;;;0.20;0.15;;;;;;;;;;4970094;28;20533;-86
2024/02/21 00:09:37;;;;;;;0.20;0.10;;;;;;;;;;4982687;28;20097;-86
2024/02/21 00:12:05;;;;;;;0.20;0.10;;;;;;;;;;4969362;28;20042;-85
2024/02/21 00:14:31;;;;;;;0.20;0.10;;;;;;;;;;4966920;28;20049;-86
2024/02/21 00:17:00;;;;;;;0.20;0.10;;;;;;;;;;4985837;28;20042;-89
2024/02/21 00:19:26;;;;;;;0.70;0.52;;;;;;;;;;4972704;28;20062;-85
2024/02/21 00:21:52;;;;;;;0.47;0.47;;;;;;;;;;4987709;28;20072;-86
2024/02/21 00:24:18;;;;;;;0.20;0.10;;;;;;;;;;4971859;28;20493;-87
2024/02/21 00:26:44;;;;;;;0.65;0.65;;;;;;;;;;4985184;28;20057;-84
2024/02/21 00:29:10;;;;;;;0.22;0.22;;;;;;;;;;4966964;28;20034;-84
2024/02/21 00:31:38;;;;;;;0.82;0.55;;;;;;;;;;4953241;28;20133;-87
2024/02/21 00:34:04;;;;;;;0.20;0.10;;;;;;;;;;4969715;28;20114;-86
2024/02/21 00:36:30;;;;;;;0.20;0.20;;;;;;;;;;4955559;28;20038;-86
2024/02/21 00:38:56;;;;;;;0.20;0.10;;;;;;;;;;4975360;28;20046;-84
2024/02/21 00:41:22;;;;;;;0.43;0.20;;;;;;;;;;4972381;28;20557;-88
2024/02/21 00:43:49;;;;;;;0.63;0.63;;;;;;;;;;4960348;28;20092;-85
2024/02/21 00:46:16;;;;;;;0.20;0.10;;;;;;;;;;4958811;28;20309;-86
2024/02/21 00:48:42;;;;;;;0.20;0.10;;;;;;;;;;4986116;28;20065;-86
2024/02/21 00:51:10;;;;;;;0.20;0.00;;;;;;;;;;4969557;28;20057;-83
2024/02/21 00:53:38;;;;;;;0.20;0.10;;;;;;;;;;4950315;28;20133;-86
2024/02/21 00:56:05;;;;;;;0.57;0.22;;;;;;;;;;4954887;28;20038;-86
2024/02/21 00:58:31;;;;;;;0.20;0.20;;;;;;;;;;4983956;28;20042;-86
2024/02/21 01:00:57;;;;;;;0.88;0.65;;;;;;;;;;5002302;28;20065;-87
2024/02/21 01:03:23;;;;;;;0.38;0.38;;;;;;;;;;4970453;28;20046;-82
2024/02/21 01:05:49;;;;;;;0.20;0.20;;;;;;;;;;4985018;28;20049;-87
2024/02/21 01:08:15;;;;;;;1.02;0.70;;;;;;;;;;4980418;28;20046;-87
2024/02/21 01:10:41;;;;;;;0.20;0.10;;;;;;;;;;4968742;28;20121;-85
2024/02/21 01:13:07;;;;;;;0.20;0.10;;;;;;;;;;4955156;28;20046;-89
2024/02/21 01:15:33;;;;;;;0.30;0.30;;;;;;;;;;4968297;28;20515;-88
2024/02/21 01:17:59;;;;;;;0.20;0.10;;;;;;;;;;4963729;23;20038;-83
2024/02/21 01:20:25;;;;;;;0.20;0.10;;;;;;;;;;4965372;28;20093;-83
2024/02/21 01:22:51;;;;;;;0.57;0.57;;;;;;;;;;4972098;28;20042;-84
2024/02/21 01:25:17;;;;;;;0.20;0.00;;;;;;;;;;4971798;28;20571;-80
2024/02/21 01:27:43;;;;;;;0.20;0.00;;;;;;;;;;4971666;28;20045;-84
2024/02/21 01:30:10;;;;;;;0.20;0.10;;;;;;;;;;4969320;28;20044;-85
2024/02/21 01:32:36;;;;;;;0.20;0.10;;;;;;;;;;4974602;28;20383;-82
2024/02/21 01:35:03;;;;;;;0.20;0.10;;;;;;;;;;4968281;28;20057;-88
2024/02/21 01:37:29;;;;;;;0.20;0.20;;;;;;;;;;4981104;28;20103;-85
2024/02/21 01:39:55;;;;;;;0.20;0.00;;;;;;;;;;4998094;28;20038;-86
2024/02/21 01:42:21;;;;;;;0.20;0.10;;;;;;;;;;4977313;28;20049;-87
2024/02/21 01:44:47;;;;;;;0.73;0.73;;;;;;;;;;4989313;28;20049;-81
2024/02/21 01:47:13;;;;;;;0.20;0.15;;;;;;;;;;4988149;28;20457;-84
2024/02/21 01:49:41;;;;;;;0.30;0.20;;;;;;;;;;4970246;28;20371;-88
2024/02/21 01:52:07;;;;;;;0.52;0.52;;;;;;;;;;4971855;28;20069;-83
2024/02/21 01:54:33;;;;;;;0.20;0.10;;;;;;;;;;4982571;28;20103;-82
2024/02/21 01:56:59;;;;;;;0.20;0.10;;;;;;;;;;4992352;28;20098;-87
2024/02/21 01:59:25;;;;;;;0.40;0.32;;;;;;;;;;4969853;28;20037;-86
2024/02/21 02:01:52;;;;;;;0.20;0.10;;;;;;;;;;4965407;28;20050;-86
2024/02/21 02:04:19;;;;;;;0.35;0.35;;;;;;;;;;4965261;28;20045;-86
2024/02/21 02:06:45;;;;;;;0.20;0.10;;;;;;;;;;4973925;28;20033;-85
2024/02/21 02:09:12;;;;;;;0.30;0.22;;;;;;;;;;4967209;28;20045;-86
2024/02/21 02:11:38;;;;;;;0.30;0.25;;;;;;;;;;4983222;28;20069;-85
2024/02/21 02:14:04;;;;;;;0.32;0.32;;;;;;;;;;4960985;28;20042;-85
2024/02/21 02:16:30;;;;;;;0.57;0.52;;;;;;;;;;4968174;28;20042;-85
2024/02/21 02:18:56;;;;;;;0.20;0.10;;;;;;;;;;4978373;28;20545;-87
2024/02/21 02:21:29;;;;;;;0.20;0.03;;;;;;;;;;4966397;28;20088;-87
2024/02/21 02:23:55;;;;;;;0.32;0.32;;;;;;;;;;4982264;28;20031;-84
2024/02/21 02:26:21;;;;;;;0.20;0.10;;;;;;;;;;4983799;28;20127;-85
2024/02/21 02:28:47;;;;;;;0.20;0.10;;;;;;;;;;4984999;28;20285;-86
2024/02/21 02:31:13;;;;;;;0.20;0.00;;;;;;;;;;4989660;28;20036;-84
2024/02/21 02:33:39;;;;;;;0.20;0.10;;;;;;;;;;4985862;28;20046;-86
2024/02/21 02:36:05;;;;;;;0.20;0.03;;;;;;;;;;4984810;28;20045;-82
2024/02/21 02:38:31;;;;;;;0.20;0.10;;;;;;;;;;4986384;28;20567;-85
2024/02/21 02:40:57;;;;;;;0.20;0.10;;;;;;;;;;4966480;28;20602;-83
2024/02/21 02:43:23;;;;;;;0.20;0.08;;;;;;;;;;4972427;28;20149;-87
2024/02/21 02:45:49;;;;;;;0.20;0.00;;;;;;;;;;4968283;28;20088;-85
2024/02/21 02:48:15;;;;;;;0.20;0.10;;;;;;;;;;4967065;28;20387;-87
2024/02/21 02:50:42;;;;;;;0.20;0.00;;;;;;;;;;5002916;28;20041;-85
2024/02/21 02:53:08;;;;;;;0.45;0.20;;;;;;;;;;4981332;28;20125;-83
2024/02/21 02:55:35;;;;;;;0.20;0.10;;;;;;;;;;4982710;28;20128;-83
2024/02/21 02:58:01;;;;;;;0.20;0.10;;;;;;;;;;4990915;28;20053;-85
2024/02/21 03:00:27;;;;;;;0.20;0.20;;;;;;;;;;4967252;28;20172;-84
2024/02/21 03:02:53;;;;;;;0.20;0.00;;;;;;;;;;4969980;28;20046;-86
2024/02/21 03:05:20;;;;;;;0.20;0.10;;;;;;;;;;4969663;28;20041;-85
2024/02/21 03:07:49;;;;;;;0.30;0.28;;;;;;;;;;4983544;28;20430;-86
2024/02/21 03:10:19;;;;;;;0.20;0.10;;;;;;;;;;4970829;28;20046;-85
2024/02/21 03:12:45;;;;;;;0.20;0.15;;;;;;;;;;4965488;28;20085;-86
2024/02/21 03:15:11;;;;;;;0.45;0.22;;;;;;;;;;4970912;28;20038;-84
2024/02/21 03:17:38;;;;;;;0.20;0.10;;;;;;;;;;4970661;28;20041;-84
2024/02/21 03:20:09;;;;;;;0.20;0.05;;;;;;;;;;4989186;28;20512;-82
2024/02/21 03:22:35;;;;;;;0.20;0.10;;;;;;;;;;4992022;28;20457;-84
2024/02/21 03:25:01;;;;;;;1.42;0.65;;;;;;;;;;4992366;28;20056;-84
2024/02/21 03:27:27;;;;;;;1.33;0.32;;;;;;;;;;4984960;28;20129;-84
2024/02/21 03:29:53;;;;;;;0.22;0.15;;;;;;;;;;4997287;28;20117;-84
2024/02/21 03:32:19;;;;;;;0.20;0.10;;;;;;;;;;4976806;28;20037;-83
2024/02/21 03:34:46;;;;;;;0.20;0.10;;;;;;;;;;4991287;28;20068;-86
2024/02/21 03:37:13;;;;;;;0.20;0.10;;;;;;;;;;4973257;28;20161;-83
2024/02/21 03:39:39;;;;;;;0.20;0.10;;;;;;;;;;4961362;28;20046;-84
2024/02/21 03:42:05;;;;;;;0.20;0.10;;;;;;;;;;4991250;28;20100;-87
2024/02/21 03:44:32;;;;;;;0.20;0.10;;;;;;;;;;4973642;28;20042;-85
2024/02/21 03:47:11;;;;;;;0.20;0.10;;;;;;;;;;4985086;28;20046;-87
2024/02/21 03:49:37;;;;;;;0.20;0.20;;;;;;;;;;4979947;28;20038;-86
2024/02/21 03:52:08;;;;;;;0.50;0.35;;;;;;;;;;4992108;28;20128;-85
2024/02/21 03:54:37;;;;;;;0.20;0.10;;;;;;;;;;4972871;28;20057;-85
2024/02/21 03:57:03;;;;;;;0.20;0.13;;;;;;;;;;4968379;28;20034;-87
2024/02/21 03:59:29;;;;;;;0.20;0.08;;;;;;;;;;4990968;28;20077;-87
2024/02/21 04:01:55;;;;;;;0.20;0.10;;;;;;;;;;4988749;28;20066;-86
2024/02/21 04:04:25;;;;;;;0.20;0.10;;;;;;;;;;4991461;28;20140;-85
2024/02/21 04:06:51;;;;;;;0.20;0.10;;;;;;;;;;4964716;28;20121;-85
2024/02/21 04:09:18;;;;;;;0.20;0.10;;;;;;;;;;4968520;28;20478;-86
2024/02/21 04:11:44;;;;;;;0.20;0.10;;;;;;;;;;4973023;28;20402;-86
2024/02/21 04:14:11;;;;;;;0.20;0.00;;;;;;;;;;4978147;28;20033;-86
2024/02/21 04:16:37;;;;;;;0.20;0.10;;;;;;;;;;4969189;28;20088;-85
2024/02/21 04:19:03;;;;;;;0.20;0.00;;;;;;;;;;4987390;28;20056;-86
2024/02/21 04:21:29;;;;;;;0.20;0.10;;;;;;;;;;4968080;28;20041;-80
2024/02/21 04:23:55;;;;;;;0.20;0.10;;;;;;;;;;4991303;28;20034;-86
2024/02/21 04:26:21;;;;;;;0.30;0.22;;;;;;;;;;4960616;28;20136;-88
2024/02/21 04:28:47;;;;;;;0.20;0.10;;;;;;;;;;4969721;28;20061;-86
2024/02/21 04:31:14;;;;;;;0.20;0.10;;;;;;;;;;4969972;28;20061;-85
2024/02/21 04:33:42;;;;;;;0.20;0.10;;;;;;;;;;4984816;28;20561;-83
2024/02/21 04:36:09;;;;;;;0.20;0.10;;;;;;;;;;4968325;28;20049;-86
2024/02/21 04:38:35;;;;;;;0.20;0.10;;;;;;;;;;4973092;28;20069;-85
2024/02/21 04:41:01;;;;;;;0.20;0.10;;;;;;;;;;4987816;28;20067;-85
2024/02/21 04:43:27;;;;;;;0.20;0.20;;;;;;;;;;4971837;28;20073;-84
2024/02/21 04:45:53;;;;;;;0.20;0.10;;;;;;;;;;4969748;28;20306;-84
2024/02/21 04:48:20;;;;;;;0.20;0.10;;;;;;;;;;4990715;28;20096;-84
2024/02/21 04:50:46;;;;;;;0.20;0.10;;;;;;;;;;4987605;28;20097;-85
2024/02/21 04:53:12;;;;;;;0.20;0.10;;;;;;;;;;4986813;28;20363;-86
2024/02/21 04:55:39;;;;;;;0.20;0.10;;;;;;;;;;4984887;28;20034;-86
2024/02/21 04:58:05;;;;;;;0.20;0.10;;;;;;;;;;4983148;28;20042;-84
2024/02/21 05:00:31;;;;;;;0.20;0.03;;;;;;;;;;4985234;28;20046;-83
2024/02/21 05:02:58;;;;;;;0.20;0.10;;;;;;;;;;4971312;28;20108;-82
2024/02/21 05:05:24;;;;;;;0.20;0.10;;;;;;;;;;4982147;28;20042;-80
2024/02/21 05:07:50;;;;;;;0.20;0.10;;;;;;;;;;4983304;28;20065;-81
2024/02/21 05:10:17;;;;;;;0.20;0.10;;;;;;;;;;4972427;28;20164;-82
2024/02/21 05:12:43;;;;;;;0.20;0.10;;;;;;;;;;4987116;28;20059;-82
2024/02/21 05:15:10;;;;;;;0.20;0.10;;;;;;;;;;4970362;28;20469;-84
2024/02/21 05:17:36;;;;;;;0.20;0.10;;;;;;;;;;4966591;28;20045;-82
2024/02/21 05:20:02;;;;;;;0.20;0.10;;;;;;;;;;4974430;28;20497;-84
2024/02/21 05:22:28;;;;;;;0.57;0.57;;;;;;;;;;4989699;28;20038;-82
2024/02/21 05:24:54;;;;;;;0.20;0.10;;;;;;;;;;5006311;28;20040;-80
2024/02/21 05:27:20;;;;;;;0.20;0.10;;;;;;;;;;4977624;28;20104;-83
2024/02/21 05:29:48;;;;;;;0.20;0.10;;;;;;;;;;4968560;28;20140;-84
2024/02/21 05:32:14;;;;;;;0.20;0.00;;;;;;;;;;4968978;28;20555;-83
2024/02/21 05:34:40;;;;;;;0.20;0.00;;;;;;;;;;4984747;28;20037;-83
2024/02/21 05:37:06;;;;;;;0.20;0.10;;;;;;;;;;4981186;28;20038;-84
2024/02/21 05:39:32;;;;;;;0.20;0.13;;;;;;;;;;4979586;28;20052;-83
2024/02/21 05:41:58;;;;;;;0.20;0.10;;;;;;;;;;4968971;28;20533;-84
2024/02/21 05:44:24;;;;;;;0.20;0.00;;;;;;;;;;4966864;28;20482;-82
2024/02/21 05:46:50;;;;;;;0.20;0.10;;;;;;;;;;4963087;28;20103;-81
2024/02/21 05:49:16;;;;;;;0.20;0.20;;;;;;;;;;4982266;28;20490;-81
2024/02/21 05:51:42;;;;;;;0.38;0.38;;;;;;;;;;4966940;28;20060;-83
2024/02/21 05:54:08;;;;;;;0.20;0.10;;;;;;;;;;4996428;28;20030;-84
2024/02/21 05:56:34;;;;;;;0.20;0.10;;;;;;;;;;4982967;28;20498;-81
2024/02/21 05:59:00;;;;;;;0.47;0.40;;;;;;;;;;4985388;28;20133;-83
2024/02/21 06:01:26;;;;;;;0.20;0.13;;;;;;;;;;4966256;28;20037;-82
2024/02/21 06:03:52;;;;;;;0.20;0.20;;;;;;;;;;4964733;28;20045;-83
2024/02/21 06:06:18;;;;;;;0.20;0.10;;;;;;;;;;4983987;28;20030;-83
2024/02/21 06:08:44;;;;;;;1.17;0.73;;;;;;;;;;4978389;28;20041;-82
2024/02/21 06:11:10;;;;;;;0.20;0.10;;;;;;;;;;4966569;28;20030;-82
2024/02/21 06:13:39;;;;;;;0.20;0.10;;;;;;;;;;4983804;28;20045;-84
2024/02/21 06:16:06;;;;;;;0.20;0.10;;;;;;;;;;4983392;28;20065;-82
2024/02/21 06:18:32;;;;;;;0.20;0.10;;;;;;;;;;4971496;28;20406;-85
2024/02/21 06:20:58;;;;;;;0.63;0.55;;;;;;;;;;4975759;28;20042;-82
2024/02/21 06:23:24;;;;;;;0.20;0.10;;;;;;;;;;4991435;28;20037;-84
2024/02/21 06:25:50;;;;;;;0.20;0.10;;;;;;;;;;4967066;28;20563;-82
2024/02/21 06:28:16;;;;;;;0.20;0.10;;;;;;;;;;4988216;28;20065;-84
2024/02/21 06:30:45;;;;;;;0.20;0.10;;;;;;;;;;4971354;28;20042;-82
2024/02/21 06:33:11;;;;;;;0.25;0.17;;;;;;;;;;4987855;28;20625;-84
2024/02/21 06:35:40;;;;;;;0.20;0.10;;;;;;;;;;4986377;28;20042;-83
2024/02/21 06:38:06;;;;;;;0.20;0.10;;;;;;;;;;4982441;28;20137;-84
2024/02/21 06:40:38;;;;;;;0.20;0.13;;;;;;;;;;4969957;28;20073;-81
2024/02/21 06:43:04;;;;;;;0.20;0.10;;;;;;;;;;4989569;28;20097;-83
2024/02/21 06:45:30;;;;;;;0.20;0.10;;;;;;;;;;4984928;28;20049;-82
2024/02/21 06:47:56;;;;;;;0.20;0.10;;;;;;;;;;4957606;28;20039;-83
2024/02/21 06:50:22;;;;;;;0.85;0.45;;;;;;;;;;4952912;28;20453;-83
2024/02/21 06:52:48;;;;;;;0.20;0.10;;;;;;;;;;4965730;28;20045;-84
2024/02/21 06:55:14;;;;;;;0.20;0.10;;;;;;;;;;4979094;28;20691;-83
2024/02/21 06:57:40;;;;;;;0.20;0.00;;;;;;;;;;4962634;28;20069;-82
2024/02/21 07:00:08;;;;;;;0.45;0.45;;;;;;;;;;4966326;28;20526;-83
2024/02/21 07:02:34;;;;;;;0.22;0.20;;;;;;;;;;4963055;28;20034;-84
2024/02/21 07:05:00;;;;;;;0.30;0.20;;;;;;;;;;4976706;28;20572;-81
2024/02/21 07:07:26;;;;;;;0.30;0.30;;;;;;;;;;4966709;28;20038;-82
2024/02/21 07:09:53;;;;;;;0.40;0.40;;;;;;;;;;4961812;28;20044;-82
2024/02/21 07:12:19;;;;;;;0.20;0.00;;;;;;;;;;4971924;28;20094;-84
2024/02/21 07:14:45;;;;;;;0.20;0.00;;;;;;;;;;4976421;28;20038;-84
2024/02/21 07:17:11;;;;;;;0.20;0.10;;;;;;;;;;4984592;28;20401;-87
2024/02/21 07:19:51;;;;;;;0.20;0.10;;;;;;;;;;5011602;23;20073;-85
2024/02/21 07:22:23;;;;;;;0.20;0.10;;;;;;;;;;4972643;28;20070;-85
2024/02/21 07:24:49;;;;;;;0.20;0.10;;;;;;;;;;4973379;28;20088;-85
2024/02/21 07:27:15;;;;;;;0.20;0.10;;;;;;;;;;4992278;28;20125;-85
2024/02/21 07:29:42;;;;;;;0.20;0.10;;;;;;;;;;4988408;28;20049;-85
2024/02/21 07:32:17;;;;;;;0.20;0.00;;;;;;;;;;4989193;28;20033;-87
2024/02/21 07:34:43;;;;;;;0.20;0.10;;;;;;;;;;4990258;28;20121;-85
2024/02/21 07:37:17;;;;;;;0.20;0.10;;;;;;;;;;4988715;28;20046;-85
2024/02/21 07:39:43;;;;;;;0.30;0.30;;;;;;;;;;4989541;28;20153;-87
2024/02/21 07:42:11;;;;;;;0.20;0.10;;;;;;;;;;4989703;28;20447;-87
2024/02/21 07:44:37;;;;;;;0.20;0.10;;;;;;;;;;5004951;28;20418;-88
2024/02/21 07:47:09;;;;;;;0.20;0.10;;;;;;;;;;4988866;28;20049;-87
2024/02/21 07:49:48;;;;;;;0.20;0.10;;;;;;;;;;5007766;28;20116;-87
2024/02/21 07:52:14;;;;;;;0.20;0.05;;;;;;;;;;5005916;28;20523;-85
2024/02/21 07:54:41;;;;;;;0.20;0.00;;;;;;;;;;4993078;28;20033;-85
2024/02/21 07:57:08;;;;;;;0.20;0.10;;;;;;;;;;4990829;28;20049;-87
2024/02/21 07:59:34;;;;;;;0.20;0.10;;;;;;;;;;4991316;28;20103;-85
2024/02/21 08:02:00;;;;;;;0.20;0.20;;;;;;;;;;5005167;28;20041;-83
2024/02/21 08:04:28;;;;;;;0.20;0.10;;;;;;;;;;5008802;28;20132;-87
2024/02/21 08:06:55;;;;;;;0.20;0.10;;;;;;;;;;4997349;28;20038;-84
2024/02/21 08:09:28;;;;;;;0.30;0.28;;;;;;;;;;5010372;28;20519;-87
2024/02/21 08:11:57;;;;;;;0.68;0.57;;;;;;;;;;5009393;28;20048;-86
2024/02/21 08:14:32;;;;;;;0.20;0.10;;;;;;;;;;4994536;28;20214;-87
2024/02/21 08:16:59;;;;;;;0.20;0.20;;;;;;;;;;5007614;28;20044;-86
2024/02/21 08:19:28;;;;;;;0.20;0.13;;;;;;;;;;4983545;28;20061;-87
2024/02/21 08:21:54;;;;;;;0.40;0.40;;;;;;;;;;4991274;28;20115;-87
2024/02/21 08:24:25;;;;;;;0.20;0.10;;;;;;;;;;4995573;28;20048;-91
2024/02/21 08:26:54;;;;;;;0.20;0.00;;;;;;;;;;4992352;28;20037;-89
2024/02/21 08:29:20;;;;;;;0.75;0.32;;;;;;;;;;5013710;28;20040;-87
2024/02/21 08:31:49;;;;;;;0.20;0.10;;;;;;;;;;5012909;28;20069;-91
2024/02/21 08:34:15;;;;;;;0.20;0.17;;;;;;;;;;4993206;28;20129;-87
2024/02/21 08:36:41;;;;;;;0.20;0.10;;;;;;;;;;4991534;28;20452;-88
2024/02/21 08:39:09;;;;;;;0.20;0.10;;;;;;;;;;4989611;28;20033;-86
2024/02/21 08:41:38;;;;;;;0.20;0.10;;;;;;;;;;5005557;28;20497;-85
2024/02/21 08:44:04;;;;;;;0.20;0.10;;;;;;;;;;4990069;28;20137;-85
2024/02/21 08:46:30;;;;;;;0.20;0.10;;;;;;;;;;5004800;28;20042;-87
2024/02/21 08:48:56;;;;;;;0.20;0.10;;;;;;;;;;4994725;28;20043;-84
2024/02/21 08:51:22;;;;;;;0.20;0.10;;;;;;;;;;5008366;28;20414;-89
2024/02/21 08:53:49;;;;;;;0.20;0.10;;;;;;;;;;5008422;28;20041;-86
2024/02/21 08:56:15;;;;;;;0.20;0.10;;;;;;;;;;5008239;28;20080;-87
2024/02/21 08:58:41;;;;;;;0.32;0.32;;;;;;;;;;4994809;28;20425;-86
2024/02/21 09:01:17;;;;;;;0.55;0.25;;;;;;;;;;4992416;28;20549;-88
2024/02/21 09:03:43;;;;;;;0.20;0.10;;;;;;;;;;4992426;28;20413;-86
2024/02/21 09:06:10;;;;;;;0.20;0.10;;;;;;;;;;5006514;28;20049;-84
2024/02/21 09:08:39;;;;;;;0.20;0.08;;;;;;;;;;4992879;28;20124;-88
2024/02/21 09:11:06;;;;;;;0.20;0.10;;;;;;;;;;4991580;28;20053;-85
2024/02/21 09:13:32;;;;;;;0.20;0.10;;;;;;;;;;4988451;28;20544;-89
2024/02/21 09:16:05;;;;;;;0.20;0.08;;;;;;;;;;4993905;28;20215;-89
2024/02/21 09:18:31;;;;;;;0.20;0.10;;;;;;;;;;5013896;28;20053;-84
2024/02/21 09:21:00;;;;;;;0.20;0.10;;;;;;;;;;4998302;28;20244;-86
2024/02/21 09:23:27;;;;;;;0.20;0.10;;;;;;;;;;4996022;28;20065;-84
2024/02/21 09:25:53;;;;;;;0.20;0.10;;;;;;;;;;4999620;28;20045;-89
2024/02/21 09:28:19;;;;;;;0.20;0.10;;;;;;;;;;4995593;28;20515;-85
2024/02/21 09:30:47;;;;;;;0.20;0.10;;;;;;;;;;4998162;28;20069;-85
2024/02/21 09:33:18;;;;;;;0.20;0.10;;;;;;;;;;4993890;28;20042;-88
2024/02/21 09:35:48;;;;;;;0.20;0.10;;;;;;;;;;4995738;28;20069;-88
2024/02/21 09:38:14;;;;;;;0.20;0.05;;;;;;;;;;5012011;28;20054;-87
2024/02/21 09:40:49;;;;;;;0.20;0.10;;;;;;;;;;4991953;28;20053;-84
2024/02/21 09:43:18;;;;;;;0.20;0.00;;;;;;;;;;4995624;28;20072;-86
2024/02/21 09:46:05;;;;;;;0.20;0.10;;;;;;;;;;4996704;28;20041;-89
2024/02/21 09:48:43;;;;;;;0.52;0.22;;;;;;;;;;5011547;28;20033;-88
2024/02/21 09:51:11;;;;;;;0.20;0.10;;;;;;;;;;4995352;28;20121;-86
2024/02/21 09:53:38;;;;;;;0.28;0.25;;;;;;;;;;5013451;28;20519;-86
2024/02/21 09:56:13;;;;;;;0.20;0.10;;;;;;;;;;5012905;28;20045;-84
2024/02/21 09:58:42;;;;;;;0.20;0.10;;;;;;;;;;5012582;28;20041;-88
2024/02/21 10:01:08;;;;;;;0.20;0.10;;;;;;;;;;4998059;28;20175;-85
2024/02/21 10:03:34;;;;;;;0.20;0.10;;;;;;;;;;4995172;28;20821;-84
2024/02/21 10:06:06;;;;;;;0.20;0.10;;;;;;;;;;5024985;28;20082;-86
2024/02/21 10:08:32;;;;;;;0.20;0.20;;;;;;;;;;4990363;28;20034;-86
2024/02/21 10:11:00;;;;;;;0.25;0.20;;;;;;;;;;5008966;28;20038;-86
2024/02/21 10:13:27;;;;;;;0.20;0.10;;;;;;;;;;5008620;28;20095;-86
2024/02/21 10:16:03;;;;;;;0.20;0.15;;;;;;;;;;5010640;28;20133;-86
2024/02/21 10:18:29;;;;;;;0.20;0.20;;;;;;;;;;5007719;28;20040;-86
2024/02/21 10:21:01;;;;;;;0.25;0.25;;;;;;;;;;4993791;28;21011;-86
2024/02/21 10:23:27;;;;;;;0.45;0.38;;;;;;;;;;4983296;28;20041;-86
2024/02/21 10:25:53;;;;;;;0.20;0.10;;;;;;;;;;5009999;28;20042;-85
2024/02/21 10:28:24;;;;;;;0.20;0.08;;;;;;;;;;5009019;28;20041;-85
2024/02/21 10:30:53;;;;;;;0.20;0.13;;;;;;;;;;5010657;28;20087;-85
2024/02/21 10:33:20;;;;;;;0.60;0.60;;;;;;;;;;4993159;28;20063;-88
2024/02/21 10:35:46;;;;;;;0.20;0.10;;;;;;;;;;4991584;28;20393;-86
2024/02/21 10:38:13;;;;;;;0.20;0.10;;;;;;;;;;5001863;28;20050;-87
2024/02/21 10:40:39;;;;;;;0.22;0.22;;;;;;;;;;4991168;28;20385;-87
2024/02/21 10:43:07;;;;;;;0.85;0.20;;;;;;;;;;4993661;28;20049;-86
2024/02/21 10:45:36;;;;;;;0.30;0.30;;;;;;;;;;4991520;28;20037;-86
2024/02/21 10:48:16;;;;;;;0.20;0.00;;;;;;;;;;5009263;28;20060;-87
2024/02/21 10:50:54;;;;;;;0.35;0.35;;;;;;;;;;5008299;28;20045;-88
2024/02/21 10:53:39;;;;;;;0.20;0.13;;;;;;;;;;5008107;28;20128;-88
2024/02/21 10:56:25;;;;;;;0.20;0.10;;;;;;;;;;5005925;28;20056;-85
2024/02/21 10:58:51;;;;;;;0.30;0.20;;;;;;;;;;4989631;28;20044;-83
2024/02/21 11:01:18;;;;;;;0.20;0.13;;;;;;;;;;4991189;28;20050;-88
2024/02/21 11:03:46;;;;;;;0.20;0.10;;;;;;;;;;4992107;28;20088;-85
2024/02/21 11:06:13;;;;;;;0.20;0.10;;;;;;;;;;4995380;28;20025;-86
2024/02/21 11:08:39;;;;;;;0.20;0.05;;;;;;;;;;5009395;28;20049;-84
2024/02/21 11:11:05;;;;;;;0.30;0.20;;;;;;;;;;5011458;28;20045;-82
2024/02/21 11:13:32;;;;;;;0.20;0.10;;;;;;;;;;5026209;28;20030;-85
2024/02/21 11:16:08;;;;;;;0.20;0.10;;;;;;;;;;4993475;28;20059;-85
2024/02/21 11:18:34;;;;;;;0.22;0.10;;;;;;;;;;4985825;28;20030;-87
2024/02/21 11:21:06;;;;;;;0.82;0.82;;;;;;;;;;4989534;28;20047;-85
2024/02/21 11:23:32;;;;;;;0.20;0.10;;;;;;;;;;5008415;28;20108;-86
2024/02/21 11:26:05;;;;;;;0.20;0.10;;;;;;;;;;4993682;28;20041;-86
2024/02/21 11:28:33;;;;;;;0.20;0.10;;;;;;;;;;5025394;28;20050;-86
2024/02/21 11:31:15;;;;;;;0.73;0.25;;;;;;;;;;5007377;28;20021;-87
2024/02/21 11:33:42;;;;;;;0.20;0.08;;;;;;;;;;5009780;28;20029;-87
2024/02/21 11:36:12;;;;;;;0.40;0.40;;;;;;;;;;4997324;28;20034;-87
2024/02/21 11:38:40;;;;;;;0.20;0.10;;;;;;;;;;4996146;28;20497;-85
2024/02/21 11:41:14;;;;;;;0.30;0.30;;;;;;;;;;4990846;28;20049;-88
2024/02/21 11:43:41;;;;;;;0.73;0.22;;;;;;;;;;5001434;28;20043;-87
2024/02/21 11:46:07;;;;;;;0.20;0.00;;;;;;;;;;5011421;28;20334;-86
2024/02/21 11:48:33;;;;;;;0.20;0.10;;;;;;;;;;4991243;28;20053;-86
2024/02/21 11:51:00;;;;;;;0.20;0.13;;;;;;;;;;4996407;28;20045;-86
2024/02/21 11:53:30;;;;;;;0.20;0.10;;;;;;;;;;5012291;28;20061;-85
2024/02/21 11:55:56;;;;;;;0.20;0.10;;;;;;;;;;5000146;28;20096;-87
2024/02/21 11:58:26;;;;;;;0.20;0.10;;;;;;;;;;5015842;28;20037;-84
2024/02/21 12:00:55;;;;;;;0.20;0.10;;;;;;;;;;4998707;28;20067;-83
2024/02/21 12:03:24;;;;;;;0.40;0.22;;;;;;;;;;5012222;28;20040;-87
2024/02/21 12:05:54;;;;;;;0.20;0.10;;;;;;;;;;5014213;28;20045;-87
2024/02/21 12:08:20;;;;;;;0.20;0.10;;;;;;;;;;5029776;28;20093;-88
2024/02/21 12:11:05;;;;;;;0.20;0.10;;;;;;;;;;5014619;28;20060;-88
2024/02/21 12:13:31;;;;;;;0.20;0.10;;;;;;;;;;5008290;28;20044;-85
2024/02/21 12:15:57;;;;;;;0.20;0.10;;;;;;;;;;5003579;28;20068;-85
2024/02/21 12:18:24;;;;;;;0.20;0.10;;;;;;;;;;4986856;28;20053;-85
2024/02/21 12:20:53;;;;;;;0.20;0.10;;;;;;;;;;5027075;28;20072;-86
2024/02/21 12:23:22;;;;;;;0.30;0.20;;;;;;;;;;5008170;28;20111;-87
2024/02/21 12:25:48;;;;;;;0.20;0.10;;;;;;;;;;4992779;28;20038;-85
2024/02/21 12:28:17;;;;;;;0.20;0.10;;;;;;;;;;5011850;28;20046;-83
2024/02/21 12:30:43;;;;;;;0.20;0.10;;;;;;;;;;4995293;28;20048;-84
2024/02/21 12:33:09;;;;;;;0.20;0.00;;;;;;;;;;4993604;28;20515;-83
2024/02/21 12:35:35;;;;;;;0.20;0.10;;;;;;;;;;5013641;28;20129;-86
2024/02/21 12:38:01;;;;;;;0.20;0.10;;;;;;;;;;4996464;28;20096;-85
2024/02/21 12:40:32;;;;;;;0.20;0.10;;;;;;;;;;5013923;28;22185;-83
2024/02/21 12:42:59;;;;;;;0.20;0.10;;;;;;;;;;5007238;28;20041;-84
2024/02/21 12:45:26;;;;;;;0.28;0.20;;;;;;;;;;5004751;28;20049;-85
2024/02/21 12:47:55;;;;;;;0.30;0.20;;;;;;;;;;4994706;28;20127;-82
2024/02/21 12:50:22;;;;;;;0.20;0.00;;;;;;;;;;4999583;28;20038;-84
2024/02/21 12:52:49;;;;;;;0.20;0.00;;;;;;;;;;5011498;28;20045;-86
2024/02/21 12:55:16;;;;;;;0.20;0.10;;;;;;;;;;4990895;28;20084;-85
2024/02/21 12:57:42;;;;;;;0.20;0.10;;;;;;;;;;4992449;28;20041;-85
2024/02/21 13:00:09;;;;;;;0.20;0.10;;;;;;;;;;4996227;28;20048;-85
2024/02/21 13:02:35;;;;;;;0.20;0.10;;;;;;;;;;4991373;28;20045;-84
2024/02/21 13:05:02;;;;;;;0.20;0.10;;;;;;;;;;5011074;28;20658;-85
2024/02/21 13:07:29;;;;;;;0.20;0.10;;;;;;;;;;5011312;28;20079;-85
2024/02/21 13:09:55;;;;;;;0.20;0.10;;;;;;;;;;4996092;28;20105;-85
2024/02/21 13:12:26;;;;;;;0.20;0.13;;;;;;;;;;4989911;28;20026;-85
2024/02/21 13:14:55;;;;;;;0.20;0.03;;;;;;;;;;5009092;28;20072;-87
2024/02/21 13:17:30;;;;;;;0.20;0.10;;;;;;;;;;4996916;28;20485;-84
2024/02/21 13:19:56;;;;;;;0.52;0.20;;;;;;;;;;4990957;23;20108;-83
2024/02/21 13:22:25;;;;;;;0.20;0.08;;;;;;;;;;4966391;28;20048;-82
2024/02/21 13:24:54;;;;;;;1.95;0.25;;;;;;;;;;4946519;28;20050;-84
2024/02/21 13:27:20;;;;;;;0.20;0.10;;;;;;;;;;4966327;28;20050;-83
2024/02/21 13:29:48;;;;;;;0.40;0.25;;;;;;;;;;4964362;28;20076;-85
2024/02/21 13:32:15;;;;;;;0.20;0.10;;;;;;;;;;4948470;28;20082;-83
2024/02/21 13:34:42;;;;;;;0.20;0.00;;;;;;;;;;4954686;28;20090;-84
2024/02/21 13:37:09;;;;;;;0.20;0.03;;;;;;;;;;4947593;28;20046;-83
2024/02/21 13:39:35;;;;;;;0.22;0.20;;;;;;;;;;4951363;28;20447;-86
2024/02/21 13:42:05;;;;;;;0.20;0.00;;;;;;;;;;4980252;28;20078;-85
2024/02/21 13:44:32;;;;;;;0.20;0.00;;;;;;;;;;4948768;28;20039;-84
2024/02/21 13:47:08;;;;;;;0.22;0.15;;;;;;;;;;4949625;28;20047;-85
2024/02/21 13:49:35;;;;;;;0.20;0.00;;;;;;;;;;4950799;28;20042;-85
2024/02/21 13:52:01;;;;;;;0.20;0.10;;;;;;;;;;4951218;28;20047;-82
2024/02/21 13:54:27;;;;;;;0.20;0.20;;;;;;;;;;4952768;28;20495;-86
2024/02/21 13:56:53;;;;;;;0.20;0.10;;;;;;;;;;4967031;28;20039;-83
2024/02/21 13:59:19;;;;;;;0.20;0.00;;;;;;;;;;4931961;28;20043;-81
2024/02/21 14:01:45;;;;;;;0.20;0.08;;;;;;;;;;4950726;28;20049;-83
2024/02/21 14:04:12;;;;;;;0.20;0.10;;;;;;;;;;4948400;28;20039;-84
2024/02/21 14:06:43;;;;;;;0.30;0.20;;;;;;;;;;4950245;28;20054;-85
2024/02/21 14:09:09;;;;;;;0.20;0.13;;;;;;;;;;4939152;28;20396;-81
2024/02/21 14:11:35;;;;;;;0.30;0.20;;;;;;;;;;4949346;28;20034;-86
2024/02/21 14:14:05;;;;;;;0.20;0.10;;;;;;;;;;4944796;28;20043;-86
2024/02/21 14:16:31;;;;;;;0.20;0.10;;;;;;;;;;4943700;28;20047;-82
2024/02/21 14:18:57;;;;;;;0.20;0.10;;;;;;;;;;4945947;28;20526;-83
2024/02/21 14:21:25;;;;;;;0.20;0.00;;;;;;;;;;4952388;28;20121;-84
2024/02/21 14:23:52;;;;;;;0.20;0.10;;;;;;;;;;4946357;28;20054;-82
2024/02/21 14:26:18;;;;;;;0.20;0.05;;;;;;;;;;4939480;28;20042;-84
2024/02/21 14:28:45;;;;;;;0.20;0.10;;;;;;;;;;4942070;28;20057;-83
2024/02/21 14:31:22;;;;;;;0.32;0.20;;;;;;;;;;4946038;28;20292;-85
2024/02/21 14:33:48;;;;;;;0.20;0.10;;;;;;;;;;4946042;28;20046;-81
2024/02/21 14:36:17;;;;;;;0.20;0.10;;;;;;;;;;4944121;28;20055;-84
2024/02/21 14:38:45;;;;;;;0.20;0.10;;;;;;;;;;4947645;28;20185;-84
2024/02/21 14:41:14;;;;;;;0.20;0.10;;;;;;;;;;4953730;28;20066;-83
2024/02/21 14:43:40;;;;;;;0.20;0.10;;;;;;;;;;4966220;28;20050;-83
2024/02/21 14:46:06;;;;;;;1.20;0.30;;;;;;;;;;4960180;28;20573;-83